Time;durP1;ratioP1;P1;durP2;ratioP2;P2;SDS_P1;SDS_P2;PMS_P1;PMS_P2;Temp;Humidity;BMP_temperature;BMP_pressure;BME280_temperature;BME280_humidity;BME280_pressure;Samples;Min_cycle;Max_cycle;Signal;HPM_P1;HPM_P2
2022/01/01 00:01:15;;;;;;;82.88;41.88;;;9.60;99.90;;;;;;6130820;23;20022;-86
2022/01/01 00:03:42;;;;;;;92.72;39.58;;;9.60;99.90;;;;;;6132066;23;20104;-85
2022/01/01 00:06:08;;;;;;;78.97;35.78;;;9.60;99.90;;;;;;6156358;23;20450;-85
2022/01/01 00:08:33;;;;;;;69.13;31.48;;;9.60;99.90;;;;;;6154664;23;20025;-84
2022/01/01 00:10:59;;;;;;;70.43;33.20;;;9.60;99.90;;;;;;6154742;23;20026;-85
2022/01/01 00:13:26;;;;;;;66.38;32.33;;;9.60;99.90;;;;;;6156437;23;20029;-84
2022/01/01 00:15:52;;;;;;;86.80;37.63;;;9.70;99.90;;;;;;6129907;23;20022;-85
2022/01/01 00:18:18;;;;;;;76.95;33.55;;;9.60;99.90;;;;;;6154583;23;20025;-85
2022/01/01 00:20:44;;;;;;;71.40;33.08;;;9.70;99.90;;;;;;6154671;23;20048;-85
2022/01/01 00:23:09;;;;;;;75.57;32.15;;;9.70;99.90;;;;;;6156913;23;20021;-85
2022/01/01 00:25:35;;;;;;;66.53;29.30;;;9.70;99.90;;;;;;6154630;23;20033;-85
2022/01/01 00:28:01;;;;;;;72.85;25.92;;;9.70;99.90;;;;;;6156302;23;20060;-85
2022/01/01 00:30:27;;;;;;;65.63;24.70;;;9.70;99.90;;;;;;6154643;23;20107;-85
2022/01/01 00:32:52;;;;;;;64.72;27.02;;;9.70;99.90;;;;;;6153653;23;20097;-85
2022/01/01 00:35:21;;;;;;;71.13;30.40;;;9.70;99.90;;;;;;6154287;23;20018;-85
2022/01/01 00:38:08;;;;;;;69.00;32.17;;;9.70;99.90;;;;;;6154550;23;20053;-84
2022/01/01 00:40:54;;;;;;;83.35;29.60;;;9.70;99.90;;;;;;6154749;23;20450;-84
2022/01/01 00:43:20;;;;;;;74.55;27.98;;;9.70;99.90;;;;;;6159059;23;20093;-86
2022/01/01 00:45:46;;;;;;;79.90;30.10;;;9.70;99.90;;;;;;6158342;23;20032;-85
2022/01/01 00:48:12;;;;;;;66.35;26.30;;;9.60;99.90;;;;;;6129691;23;20533;-85
2022/01/01 00:51:01;;;;;;;67.50;27.48;;;9.60;99.90;;;;;;6156393;23;20048;-85
2022/01/01 00:53:27;;;;;;;67.32;24.73;;;9.50;99.90;;;;;;6156147;23;20084;-84
2022/01/01 00:55:53;;;;;;;63.33;24.23;;;9.60;99.90;;;;;;6153295;23;20100;-85
2022/01/01 00:58:22;;;;;;;61.05;24.38;;;9.50;99.90;;;;;;6156567;23;20104;-85
2022/01/01 01:00:47;;;;;;;67.85;21.70;;;9.50;99.90;;;;;;6154146;23;20108;-86
2022/01/01 01:03:16;;;;;;;66.50;21.90;;;9.40;99.90;;;;;;6180777;23;20026;-85
2022/01/01 01:05:45;;;;;;;58.70;22.02;;;9.40;99.90;;;;;;6159566;23;20026;-86
2022/01/01 01:08:12;;;;;;;62.83;20.40;;;9.40;99.90;;;;;;6162490;23;20021;-85
2022/01/01 01:10:39;;;;;;;66.55;21.23;;;9.30;99.90;;;;;;6133030;23;20017;-83
2022/01/01 01:13:08;;;;;;;64.68;20.85;;;9.30;99.90;;;;;;6132468;23;20026;-85
2022/01/01 01:15:35;;;;;;;53.10;19.77;;;9.20;99.90;;;;;;6148737;23;20108;-85
2022/01/01 01:18:04;;;;;;;70.63;19.95;;;9.20;99.90;;;;;;6124335;23;20428;-85
2022/01/01 01:20:31;;;;;;;60.85;21.00;;;9.20;99.90;;;;;;6124280;23;20450;-85
2022/01/01 01:22:57;;;;;;;58.58;18.95;;;9.10;99.90;;;;;;6126399;23;20029;-84
2022/01/01 01:25:25;;;;;;;55.03;18.42;;;9.10;99.90;;;;;;6123804;23;20088;-84
2022/01/01 01:27:55;;;;;;;55.33;19.65;;;9.10;99.90;;;;;;6126173;23;20021;-84
2022/01/01 01:30:23;;;;;;;71.22;19.20;;;9.10;99.90;;;;;;6124789;23;20105;-84
2022/01/01 01:32:49;;;;;;;62.33;21.60;;;9.00;99.90;;;;;;6124116;23;20026;-84
2022/01/01 01:35:15;;;;;;;60.47;20.80;;;9.00;99.90;;;;;;6126079;23;20033;-84
2022/01/01 01:37:42;;;;;;;63.42;20.45;;;9.00;99.90;;;;;;6124257;23;20033;-85
2022/01/01 01:40:29;;;;;;;72.18;22.85;;;9.00;99.90;;;;;;6100241;23;20029;-84
2022/01/01 01:42:55;;;;;;;78.40;23.27;;;9.00;99.90;;;;;;6126129;23;20077;-84
2022/01/01 01:45:27;;;;;;;73.35;25.88;;;9.00;99.90;;;;;;6099863;23;20022;-84
2022/01/01 01:47:54;;;;;;;71.57;22.45;;;9.00;99.90;;;;;;6124659;23;20065;-84
2022/01/01 01:50:20;;;;;;;85.60;26.15;;;8.90;99.90;;;;;;6126512;23;20025;-85
2022/01/01 01:52:51;;;;;;;85.20;27.40;;;8.90;99.90;;;;;;6127802;23;20096;-84
2022/01/01 01:55:17;;;;;;;87.03;27.80;;;8.90;99.90;;;;;;6124285;23;20030;-85
2022/01/01 01:57:43;;;;;;;96.57;29.23;;;8.90;99.90;;;;;;6123770;23;20030;-84
2022/01/01 02:00:50;;;;;;;95.40;28.98;;;8.90;99.90;;;;;;6123450;23;20026;-84
2022/01/01 02:03:00;;;;;;;80.22;26.17;;;8.80;99.90;;;;;;6125315;23;20022;-85
2022/01/01 02:05:26;;;;;;;73.95;25.83;;;8.80;99.90;;;;;;6124096;23;20032;-84
2022/01/01 02:07:54;;;;;;;89.35;28.60;;;8.80;99.90;;;;;;6148732;23;20097;-84
2022/01/01 02:11:01;;;;;;;80.68;27.48;;;8.70;99.90;;;;;;6123788;23;20140;-85
2022/01/01 02:13:35;;;;;;;78.53;26.92;;;8.80;99.90;;;;;;6125527;23;20458;-85
2022/01/01 02:18:47;;;;;;;89.05;27.13;;;8.70;99.90;;;;;;6185447;23;20029;-85
2022/01/01 02:21:15;;;;;;;91.93;26.45;;;8.80;99.90;;;;;;6161128;23;20052;-85
2022/01/01 02:23:46;;;;;;;76.93;25.20;;;8.80;99.90;;;;;;6165615;23;20029;-84
2022/01/01 02:26:15;;;;;;;69.63;25.17;;;8.80;99.90;;;;;;6188824;23;20283;-84
2022/01/01 02:28:43;;;;;;;82.88;26.05;;;8.80;99.90;;;;;;6158416;23;20385;-85
2022/01/01 02:31:09;;;;;;;82.57;26.13;;;8.80;99.90;;;;;;6160733;23;20028;-85
2022/01/01 02:33:37;;;;;;;79.80;24.75;;;8.80;99.90;;;;;;6160755;23;20523;-85
2022/01/01 02:36:04;;;;;;;85.97;25.95;;;8.80;99.90;;;;;;6183002;23;20025;-84
2022/01/01 02:38:36;;;;;;;78.53;25.48;;;8.90;99.90;;;;;;6133350;23;20052;-85
2022/01/01 02:41:02;;;;;;;78.75;23.70;;;8.90;99.90;;;;;;6130801;23;20032;-85
2022/01/01 02:43:29;;;;;;;82.13;24.92;;;8.90;99.90;;;;;;6185069;23;20111;-83
2022/01/01 02:45:55;;;;;;;84.22;26.45;;;8.90;99.90;;;;;;6158372;23;20017;-84
2022/01/01 02:48:21;;;;;;;83.00;25.67;;;8.90;99.90;;;;;;6184905;23;20063;-84
2022/01/01 02:50:50;;;;;;;86.30;28.95;;;8.90;99.90;;;;;;6159471;23;20448;-84
2022/01/01 02:53:26;;;;;;;83.03;28.50;;;8.90;99.90;;;;;;6162578;23;20028;-85
2022/01/01 02:55:56;;;;;;;102.40;30.40;;;8.90;99.90;;;;;;6161161;23;20021;-85
2022/01/01 02:58:22;;;;;;;107.57;32.80;;;8.80;99.90;;;;;;6186949;23;20504;-83
2022/01/01 03:00:48;;;;;;;87.75;33.72;;;8.80;99.90;;;;;;6135808;23;20100;-85
2022/01/01 03:03:14;;;;;;;99.90;34.58;;;8.80;99.90;;;;;;6135734;23;20024;-84
2022/01/01 03:05:40;;;;;;;96.38;31.77;;;8.80;99.90;;;;;;6160948;23;20027;-85
2022/01/01 03:08:06;;;;;;;104.45;32.25;;;8.80;99.90;;;;;;6162448;23;20056;-86
2022/01/01 03:10:32;;;;;;;95.20;26.80;;;8.80;99.90;;;;;;6165027;23;20025;-85
2022/01/01 03:12:57;;;;;;;74.82;28.67;;;8.80;99.90;;;;;;6163399;23;20104;-85
2022/01/01 03:15:23;;;;;;;88.05;26.67;;;8.80;99.90;;;;;;6159902;23;20025;-85
2022/01/01 03:17:49;;;;;;;74.85;25.83;;;8.70;99.90;;;;;;6187054;23;20031;-85
2022/01/01 03:20:15;;;;;;;90.38;27.27;;;8.70;99.90;;;;;;6160298;23;20084;-84
2022/01/01 03:22:49;;;;;;;82.38;26.17;;;8.70;99.90;;;;;;6136620;23;20044;-85
2022/01/01 03:25:36;;;;;;;96.97;27.08;;;8.70;99.90;;;;;;6163758;23;20032;-84
2022/01/01 03:28:05;;;;;;;107.82;30.38;;;8.70;99.90;;;;;;6139904;23;20083;-84
2022/01/01 03:30:32;;;;;;;111.78;31.63;;;8.70;99.90;;;;;;6160781;23;20028;-85
2022/01/01 03:32:58;;;;;;;95.65;33.30;;;8.70;99.90;;;;;;6160177;23;20048;-84
2022/01/01 03:35:24;;;;;;;108.65;38.67;;;8.80;99.90;;;;;;6186017;23;20031;-85
2022/01/01 03:37:50;;;;;;;104.90;37.78;;;8.80;99.90;;;;;;6186533;23;20056;-85
2022/01/01 03:40:16;;;;;;;101.25;37.92;;;8.80;99.90;;;;;;6157170;23;20456;-84
2022/01/01 03:42:51;;;;;;;115.90;36.10;;;8.70;99.90;;;;;;6139104;23;20441;-84
2022/01/01 03:45:36;;;;;;;114.13;37.33;;;8.70;99.90;;;;;;6188465;23;20448;-85
2022/01/01 03:48:05;;;;;;;99.97;34.85;;;8.70;99.90;;;;;;6186272;23;20284;-85
2022/01/01 03:50:31;;;;;;;101.85;36.28;;;8.70;99.90;;;;;;6159997;23;20029;-85
2022/01/01 03:52:56;;;;;;;119.88;38.00;;;8.70;99.90;;;;;;6186334;23;20025;-85
2022/01/01 03:55:22;;;;;;;113.68;37.22;;;8.60;99.90;;;;;;6158389;23;20024;-84
2022/01/01 03:57:48;;;;;;;113.43;37.10;;;8.60;99.90;;;;;;6159675;23;20488;-84
2022/01/01 04:00:15;;;;;;;132.15;40.58;;;8.60;99.90;;;;;;6159136;23;20408;-84
2022/01/01 04:02:41;;;;;;;104.75;36.72;;;8.70;99.90;;;;;;6186365;23;20036;-84
2022/01/01 04:05:07;;;;;;;119.97;38.03;;;8.60;99.90;;;;;;6159651;23;20021;-84
2022/01/01 04:07:33;;;;;;;127.60;38.55;;;8.60;99.90;;;;;;6159562;23;20028;-85
2022/01/01 04:10:00;;;;;;;108.47;35.05;;;8.60;99.90;;;;;;6186287;23;20028;-85
2022/01/01 04:12:27;;;;;;;113.05;35.40;;;8.60;99.90;;;;;;6134723;23;20025;-85
2022/01/01 04:14:53;;;;;;;115.28;34.80;;;8.60;99.90;;;;;;6160740;23;20021;-84
2022/01/01 04:17:19;;;;;;;125.63;37.92;;;8.60;99.90;;;;;;6161789;23;20025;-85
2022/01/01 04:19:45;;;;;;;130.15;37.53;;;8.60;99.90;;;;;;6160967;23;20025;-85
2022/01/01 04:22:14;;;;;;;111.63;36.20;;;8.60;99.90;;;;;;6186056;23;20378;-84
2022/01/01 04:24:41;;;;;;;125.68;33.80;;;8.60;99.90;;;;;;6188216;23;20029;-84
2022/01/01 04:27:08;;;;;;;133.88;35.55;;;8.70;99.90;;;;;;6165997;23;20032;-84
2022/01/01 04:29:34;;;;;;;137.90;36.53;;;8.60;99.90;;;;;;6163860;23;20029;-85
2022/01/01 04:32:02;;;;;;;142.27;37.75;;;8.60;99.90;;;;;;6161582;23;20052;-85
2022/01/01 04:34:28;;;;;;;143.45;36.45;;;8.60;99.90;;;;;;6135228;23;20021;-85
2022/01/01 04:37:03;;;;;;;135.00;36.47;;;8.60;99.90;;;;;;6134874;23;20024;-83
2022/01/01 04:39:29;;;;;;;119.43;35.83;;;8.60;99.90;;;;;;6136889;23;20470;-84
2022/01/01 04:41:55;;;;;;;151.68;39.38;;;8.60;99.90;;;;;;6134784;23;20021;-84
2022/01/01 04:44:27;;;;;;;140.32;38.88;;;8.60;99.90;;;;;;6134728;23;20029;-85
2022/01/01 04:47:00;;;;;;;147.40;36.15;;;8.60;99.90;;;;;;6159340;23;20078;-84
2022/01/01 04:49:26;;;;;;;126.40;37.97;;;8.60;99.90;;;;;;6159673;23;20072;-85
2022/01/01 04:51:52;;;;;;;136.40;37.15;;;8.60;99.90;;;;;;6136476;23;20469;-84
2022/01/01 04:54:18;;;;;;;140.30;40.53;;;8.60;99.90;;;;;;6161763;23;20079;-85
2022/01/01 04:56:46;;;;;;;160.35;44.72;;;8.60;99.90;;;;;;6159314;23;20096;-85
2022/01/01 04:59:12;;;;;;;151.20;43.83;;;8.70;99.90;;;;;;6158534;23;20028;-85
2022/01/01 05:01:44;;;;;;;151.93;42.50;;;8.70;99.90;;;;;;6135019;23;20029;-85
2022/01/01 05:04:11;;;;;;;147.00;46.80;;;8.70;99.90;;;;;;6159430;23;20119;-83
2022/01/01 05:06:42;;;;;;;155.80;46.17;;;8.70;99.90;;;;;;6158769;23;20056;-84
2022/01/01 05:09:29;;;;;;;165.02;48.75;;;8.80;99.90;;;;;;6134981;23;20105;-84
2022/01/01 05:11:55;;;;;;;175.98;48.92;;;8.90;99.90;;;;;;6185512;23;20465;-85
2022/01/01 05:14:21;;;;;;;163.20;45.33;;;8.90;99.90;;;;;;6158157;23;20024;-85
2022/01/01 05:16:47;;;;;;;159.80;43.92;;;8.90;99.90;;;;;;6159340;23;20117;-85
2022/01/01 05:19:14;;;;;;;162.60;46.00;;;9.00;99.90;;;;;;6186185;23;20031;-85
2022/01/01 05:21:40;;;;;;;170.75;46.03;;;9.00;99.90;;;;;;6184093;23;20017;-84
2022/01/01 05:24:06;;;;;;;160.05;44.17;;;9.00;99.90;;;;;;6184574;23;20461;-85
2022/01/01 05:26:35;;;;;;;157.90;44.42;;;9.00;99.90;;;;;;6159842;23;20327;-85
2022/01/01 05:29:01;;;;;;;149.52;44.15;;;9.10;99.90;;;;;;6161223;23;20351;-85
2022/01/01 05:31:28;;;;;;;158.15;43.80;;;9.10;99.90;;;;;;6186179;23;20512;-85
2022/01/01 05:33:55;;;;;;;143.50;42.70;;;9.10;99.90;;;;;;6186639;23;20021;-85
2022/01/01 05:36:21;;;;;;;140.88;39.25;;;9.10;99.90;;;;;;6162540;23;20021;-84
2022/01/01 05:38:48;;;;;;;148.52;41.15;;;9.10;99.90;;;;;;6165136;23;20046;-84
2022/01/01 05:41:14;;;;;;;141.52;38.17;;;9.10;99.90;;;;;;6188208;23;20021;-84
2022/01/01 05:43:40;;;;;;;141.07;38.95;;;9.20;99.90;;;;;;6133598;23;20347;-85
2022/01/01 05:46:35;;;;;;;126.70;37.05;;;9.20;99.90;;;;;;6184775;23;20456;-85
2022/01/01 05:49:01;;;;;;;135.10;37.40;;;9.30;99.90;;;;;;6137747;23;20073;-85
2022/01/01 05:51:26;;;;;;;134.10;35.10;;;9.30;99.90;;;;;;6158246;23;20021;-85
2022/01/01 05:53:53;;;;;;;121.22;34.85;;;9.40;99.90;;;;;;6158195;23;20107;-85
2022/01/01 05:56:20;;;;;;;126.75;33.75;;;9.50;99.90;;;;;;6159163;23;20476;-85
2022/01/01 05:58:46;;;;;;;109.32;31.95;;;9.50;99.90;;;;;;6158072;23;20021;-84
2022/01/01 06:01:31;;;;;;;115.32;33.03;;;9.50;99.90;;;;;;6162581;23;20047;-84
2022/01/01 06:04:07;;;;;;;109.65;31.65;;;9.60;99.90;;;;;;6135906;23;20083;-84
2022/01/01 06:06:42;;;;;;;119.75;33.33;;;9.60;99.90;;;;;;6158567;23;20067;-84
2022/01/01 06:09:13;;;;;;;103.20;31.00;;;9.60;99.90;;;;;;6135945;23;20027;-85
2022/01/01 06:11:39;;;;;;;116.82;33.28;;;9.60;99.90;;;;;;6135880;23;20044;-85
2022/01/01 06:14:05;;;;;;;99.45;30.90;;;9.70;99.90;;;;;;6187728;23;20025;-84
2022/01/01 06:16:32;;;;;;;97.05;30.23;;;9.70;99.90;;;;;;6182993;23;20339;-85
2022/01/01 06:19:00;;;;;;;113.32;31.55;;;9.70;99.90;;;;;;6158316;23;20021;-84
2022/01/01 06:21:26;;;;;;;102.90;30.92;;;9.80;99.90;;;;;;6157638;23;20021;-84
2022/01/01 06:23:52;;;;;;;113.60;32.13;;;9.80;99.90;;;;;;6158373;23;20036;-86
2022/01/01 06:26:17;;;;;;;93.05;30.85;;;9.80;99.90;;;;;;6133203;23;20159;-85
2022/01/01 06:28:43;;;;;;;101.72;31.05;;;9.80;99.90;;;;;;6133759;23;20029;-84
2022/01/01 06:31:09;;;;;;;100.72;31.40;;;9.80;99.90;;;;;;6184530;23;20021;-85
2022/01/01 06:33:35;;;;;;;93.13;30.40;;;9.90;99.90;;;;;;6158308;23;20103;-85
2022/01/01 06:36:00;;;;;;;113.60;32.00;;;9.90;99.90;;;;;;6184527;23;20052;-85
2022/01/01 06:38:26;;;;;;;93.20;29.27;;;9.90;99.90;;;;;;6157951;23;20025;-85
2022/01/01 06:40:52;;;;;;;91.72;30.25;;;9.90;99.90;;;;;;6158334;23;20357;-85
2022/01/01 06:43:21;;;;;;;97.55;29.85;;;9.90;99.90;;;;;;6158518;23;20486;-85
2022/01/01 06:45:47;;;;;;;91.10;29.17;;;9.90;99.90;;;;;;6159941;23;20370;-86
2022/01/01 06:48:13;;;;;;;83.70;26.30;;;9.90;99.90;;;;;;6182656;23;20024;-86
2022/01/01 06:50:39;;;;;;;77.70;25.13;;;9.90;99.90;;;;;;6158349;23;20017;-84
2022/01/01 06:53:04;;;;;;;87.25;26.90;;;10.00;99.90;;;;;;6158169;23;20326;-84
2022/01/01 06:55:30;;;;;;;81.13;26.92;;;10.00;99.90;;;;;;6158253;23;20028;-85
2022/01/01 06:57:56;;;;;;;81.80;24.75;;;10.00;99.90;;;;;;6132651;23;20029;-84
2022/01/01 07:00:22;;;;;;;76.97;26.20;;;10.00;99.90;;;;;;6185043;23;20036;-84
2022/01/01 07:02:48;;;;;;;85.30;25.80;;;10.10;99.90;;;;;;6184612;23;20036;-84
2022/01/01 07:05:15;;;;;;;67.78;23.42;;;10.00;99.90;;;;;;6184458;23;20361;-85
2022/01/01 07:07:41;;;;;;;80.32;22.95;;;10.10;99.90;;;;;;6158419;23;20033;-84
2022/01/01 07:10:09;;;;;;;71.30;21.63;;;10.10;99.90;;;;;;6184821;23;20457;-84
2022/01/01 07:12:36;;;;;;;71.68;23.85;;;10.10;99.90;;;;;;6184762;23;20096;-84
2022/01/01 07:15:04;;;;;;;76.78;21.50;;;10.10;99.90;;;;;;6158547;23;20032;-84
2022/01/01 07:17:30;;;;;;;56.47;21.27;;;10.10;99.90;;;;;;6135158;23;20025;-84
2022/01/01 07:20:07;;;;;;;67.68;21.77;;;10.10;99.90;;;;;;6139135;23;20096;-85
2022/01/01 07:22:45;;;;;;;72.80;21.73;;;10.10;99.90;;;;;;6134283;23;20044;-86
2022/01/01 07:25:12;;;;;;;94.75;22.00;;;10.10;99.90;;;;;;6183916;23;20072;-85
2022/01/01 07:27:39;;;;;;;67.63;22.30;;;10.10;99.90;;;;;;6134707;23;20098;-84
2022/01/01 07:30:10;;;;;;;70.00;20.95;;;10.20;99.90;;;;;;6136858;23;20029;-84
2022/01/01 07:32:41;;;;;;;59.55;22.08;;;10.10;99.90;;;;;;6158403;23;20025;-84
2022/01/01 07:35:08;;;;;;;71.50;21.42;;;10.10;99.90;;;;;;6184864;23;20029;-83
2022/01/01 07:37:34;;;;;;;58.13;19.35;;;10.10;99.90;;;;;;6186713;23;20358;-84
2022/01/01 07:40:00;;;;;;;67.25;22.77;;;10.10;99.90;;;;;;6186501;23;20045;-85
2022/01/01 07:42:26;;;;;;;65.80;20.88;;;10.10;99.90;;;;;;6184138;23;20044;-84
2022/01/01 07:44:52;;;;;;;70.13;23.58;;;10.10;99.90;;;;;;6186411;23;20048;-84
2022/01/01 07:47:17;;;;;;;70.88;23.20;;;10.20;99.90;;;;;;6160011;23;20035;-85
2022/01/01 07:49:43;;;;;;;73.10;24.90;;;10.20;99.90;;;;;;6159751;23;20361;-85
2022/01/01 07:52:09;;;;;;;81.57;27.27;;;10.20;99.90;;;;;;6159992;23;20028;-84
2022/01/01 07:54:35;;;;;;;85.80;27.83;;;10.20;99.90;;;;;;6135649;23;20021;-84
2022/01/01 07:57:01;;;;;;;107.90;30.98;;;10.20;99.90;;;;;;6186347;23;20086;-85
2022/01/01 07:59:27;;;;;;;82.13;28.92;;;10.20;99.90;;;;;;6135457;23;20029;-85
2022/01/01 08:01:52;;;;;;;88.18;29.40;;;10.20;99.90;;;;;;6159947;23;20025;-83
2022/01/01 08:04:18;;;;;;;87.35;32.45;;;10.20;99.90;;;;;;6187197;23;20060;-85
2022/01/01 08:06:44;;;;;;;94.93;30.98;;;10.20;99.90;;;;;;6160326;23;20033;-86
2022/01/01 08:09:10;;;;;;;109.78;34.38;;;10.20;99.90;;;;;;6134460;23;20025;-83
2022/01/01 08:11:35;;;;;;;85.47;32.47;;;10.20;99.90;;;;;;6191123;23;20025;-84
2022/01/01 08:14:01;;;;;;;92.18;33.63;;;10.20;99.90;;;;;;6191582;23;20029;-85
2022/01/01 08:16:27;;;;;;;96.20;35.72;;;10.30;99.90;;;;;;6194192;23;20079;-84
2022/01/01 08:18:53;;;;;;;114.63;37.03;;;10.30;99.90;;;;;;6192104;23;20338;-86
2022/01/01 08:21:18;;;;;;;93.28;35.08;;;10.30;99.90;;;;;;6160492;23;20054;-86
2022/01/01 08:23:44;;;;;;;107.60;39.08;;;10.40;99.90;;;;;;6186311;23;20095;-86
2022/01/01 08:26:10;;;;;;;111.57;40.63;;;10.40;99.90;;;;;;6159782;23;20025;-85
2022/01/01 08:28:36;;;;;;;112.65;42.03;;;10.50;99.90;;;;;;6186494;23;20092;-85
2022/01/01 08:31:01;;;;;;;108.47;41.13;;;10.50;99.90;;;;;;6159959;23;20032;-86
2022/01/01 08:33:27;;;;;;;109.40;40.80;;;10.50;99.90;;;;;;6186899;23;20036;-86
2022/01/01 08:35:53;;;;;;;107.97;37.00;;;10.50;99.90;;;;;;6159737;23;20017;-85
2022/01/01 08:38:19;;;;;;;93.72;37.67;;;10.50;99.90;;;;;;6186439;23;20021;-84
2022/01/01 08:40:45;;;;;;;97.10;38.22;;;10.60;99.90;;;;;;6186378;23;20024;-85
2022/01/01 08:43:10;;;;;;;85.60;34.90;;;10.60;99.90;;;;;;6186826;23;20021;-85
2022/01/01 08:45:38;;;;;;;84.65;35.28;;;10.70;99.90;;;;;;6159611;23;20476;-84
2022/01/01 08:48:06;;;;;;;85.35;35.13;;;10.70;99.90;;;;;;6185622;23;20099;-85
2022/01/01 08:50:31;;;;;;;88.50;35.50;;;10.70;99.90;;;;;;6160138;23;20079;-84
2022/01/01 08:52:57;;;;;;;86.22;33.38;;;10.70;99.90;;;;;;6160532;23;20029;-84
2022/01/01 08:55:29;;;;;;;76.43;32.20;;;10.80;99.90;;;;;;6160917;23;20404;-84
2022/01/01 08:57:54;;;;;;;80.70;32.30;;;10.80;99.90;;;;;;6187154;23;20024;-85
2022/01/01 09:00:21;;;;;;;72.10;30.77;;;10.80;99.90;;;;;;6190038;23;20449;-84
2022/01/01 09:02:47;;;;;;;67.22;29.13;;;10.80;99.90;;;;;;6160488;23;20101;-86
2022/01/01 09:05:13;;;;;;;68.05;28.38;;;10.80;99.90;;;;;;6185661;23;20024;-85
2022/01/01 09:07:39;;;;;;;64.32;30.83;;;10.80;99.90;;;;;;6159298;23;20028;-84
2022/01/01 09:10:05;;;;;;;69.65;29.65;;;10.90;99.90;;;;;;6186805;23;20027;-84
2022/01/01 09:12:31;;;;;;;67.57;29.25;;;10.90;99.90;;;;;;6186095;23;20036;-85
2022/01/01 09:14:57;;;;;;;66.07;30.20;;;10.90;99.90;;;;;;6159422;23;20353;-85
2022/01/01 09:17:24;;;;;;;63.28;30.10;;;11.00;99.90;;;;;;6153769;23;20029;-84
2022/01/01 09:19:50;;;;;;;57.40;25.60;;;11.00;99.90;;;;;;6154392;23;20092;-85
2022/01/01 09:22:16;;;;;;;70.13;29.10;;;11.10;99.90;;;;;;6153812;23;20385;-84
2022/01/01 09:24:41;;;;;;;49.85;23.88;;;11.10;99.90;;;;;;6154919;23;20029;-85
2022/01/01 09:27:07;;;;;;;50.15;23.35;;;11.10;99.90;;;;;;6156590;23;20029;-85
2022/01/01 09:29:33;;;;;;;52.83;24.45;;;11.10;99.90;;;;;;6154897;23;20056;-84
2022/01/01 09:31:59;;;;;;;49.00;23.85;;;11.10;99.90;;;;;;6153784;23;20029;-84
2022/01/01 09:34:25;;;;;;;49.30;22.83;;;11.20;99.90;;;;;;6153164;23;20025;-85
2022/01/01 09:36:54;;;;;;;56.40;23.73;;;11.20;99.90;;;;;;6128548;23;20049;-84
2022/01/01 09:39:20;;;;;;;44.40;22.13;;;11.20;99.90;;;;;;6153001;23;20030;-84
2022/01/01 09:41:46;;;;;;;52.17;23.30;;;11.20;99.90;;;;;;6153899;23;20029;-84
2022/01/01 09:44:17;;;;;;;45.15;22.23;;;11.30;99.90;;;;;;6155835;23;20113;-84
2022/01/01 09:46:46;;;;;;;48.58;21.48;;;11.30;99.90;;;;;;6157973;23;20032;-83
2022/01/01 09:49:19;;;;;;;48.70;21.30;;;11.30;99.90;;;;;;6155085;23;20037;-84
2022/01/01 09:51:45;;;;;;;46.95;20.45;;;11.30;99.90;;;;;;6130608;23;20022;-84
2022/01/01 09:54:12;;;;;;;44.38;19.92;;;11.30;99.90;;;;;;6129801;23;20104;-84
2022/01/01 09:56:38;;;;;;;45.20;20.48;;;11.30;99.90;;;;;;6130322;23;20354;-85
2022/01/01 09:59:07;;;;;;;45.45;21.23;;;11.30;99.90;;;;;;6153780;23;20021;-84
2022/01/01 10:01:35;;;;;;;44.20;20.70;;;11.40;99.90;;;;;;6153566;23;20030;-84
2022/01/01 10:04:12;;;;;;;44.00;18.85;;;11.40;99.90;;;;;;6155714;23;20060;-84
2022/01/01 10:06:38;;;;;;;46.65;20.05;;;11.40;99.90;;;;;;6156031;23;20022;-83
2022/01/01 10:09:05;;;;;;;40.97;19.77;;;11.30;99.90;;;;;;6156413;23;20834;-84
2022/01/01 10:11:31;;;;;;;39.67;19.02;;;11.30;99.90;;;;;;6156309;23;20021;-84
2022/01/01 10:14:02;;;;;;;45.88;19.08;;;11.30;99.90;;;;;;6129023;23;20104;-85
2022/01/01 10:16:28;;;;;;;47.55;19.98;;;11.30;99.90;;;;;;6130491;23;20029;-84
2022/01/01 10:18:54;;;;;;;40.50;18.50;;;11.30;99.90;;;;;;6129830;23;20029;-85
2022/01/01 10:21:22;;;;;;;38.72;18.55;;;11.30;99.90;;;;;;6184722;23;20100;-84
2022/01/01 10:23:57;;;;;;;42.30;18.10;;;11.30;99.90;;;;;;6158491;23;20071;-84
2022/01/01 10:29:27;;;;;;;38.15;16.65;;;11.40;99.90;;;;;;6158314;23;20092;-84
2022/01/01 10:32:10;;;;;;;33.00;15.73;;;11.50;99.90;;;;;;6185228;23;20469;-83
2022/01/01 10:34:47;;;;;;;29.17;14.27;;;11.50;99.90;;;;;;6190642;23;20356;-85
2022/01/01 10:37:16;;;;;;;32.95;14.82;;;11.60;99.90;;;;;;6159786;23;20056;-83
2022/01/01 10:39:50;;;;;;;32.85;14.38;;;11.60;99.90;;;;;;6159472;23;20020;-84
2022/01/01 10:42:17;;;;;;;32.42;14.48;;;11.60;99.90;;;;;;6157312;23;20021;-84
2022/01/01 10:44:47;;;;;;;35.60;14.10;;;11.70;99.90;;;;;;6185348;23;20094;-84
2022/01/01 10:47:21;;;;;;;25.08;12.40;;;11.70;99.90;;;;;;6186175;23;20024;-85
2022/01/01 10:52:35;;;;;;;27.83;13.55;;;11.80;99.90;;;;;;6161429;23;20021;-85
2022/01/01 10:55:05;;;;;;;29.63;11.85;;;11.80;99.90;;;;;;6158170;23;20092;-85
2022/01/01 10:57:33;;;;;;;30.40;12.10;;;11.80;99.90;;;;;;6157452;23;20021;-85
2022/01/01 11:00:13;;;;;;;29.98;12.27;;;11.80;99.90;;;;;;6184886;23;20469;-84
2022/01/01 11:02:42;;;;;;;20.38;10.35;;;11.80;99.90;;;;;;6158441;23;20051;-85
2022/01/01 11:05:08;;;;;;;29.35;11.38;;;11.80;99.90;;;;;;6185327;23;20024;-84
2022/01/01 11:07:35;;;;;;;24.60;11.27;;;11.80;99.90;;;;;;6158467;23;20108;-84
2022/01/01 11:10:01;;;;;;;24.13;10.65;;;11.80;99.90;;;;;;6158405;23;20017;-84
2022/01/01 11:12:29;;;;;;;24.85;10.00;;;11.80;99.90;;;;;;6185286;23;20112;-84
2022/01/01 11:14:58;;;;;;;31.27;10.57;;;11.80;99.90;;;;;;6161079;23;20017;-84
2022/01/01 11:17:24;;;;;;;23.88;9.77;;;11.80;99.90;;;;;;6159848;23;20036;-84
2022/01/01 11:19:51;;;;;;;23.80;9.15;;;11.80;99.90;;;;;;6160921;23;20021;-84
2022/01/01 11:22:18;;;;;;;30.40;11.57;;;11.90;99.90;;;;;;6184676;23;20103;-84
2022/01/01 11:24:46;;;;;;;22.05;10.13;;;11.90;99.90;;;;;;6136623;23;20035;-84
2022/01/01 11:27:12;;;;;;;25.10;10.93;;;11.90;99.90;;;;;;6163567;23;20071;-84
2022/01/01 11:29:48;;;;;;;21.70;9.77;;;11.90;99.90;;;;;;6140014;23;20025;-85
2022/01/01 11:32:19;;;;;;;18.95;9.35;;;12.00;99.90;;;;;;6186467;23;20028;-84
2022/01/01 11:34:46;;;;;;;22.50;9.35;;;12.00;99.90;;;;;;6159051;23;20063;-85
2022/01/01 11:37:16;;;;;;;21.30;9.57;;;12.00;99.90;;;;;;6160589;23;20417;-85
2022/01/01 11:39:43;;;;;;;20.48;8.35;;;12.00;99.90;;;;;;6184018;23;20052;-85
2022/01/01 11:42:42;;;;;;;21.25;9.23;;;12.00;99.90;;;;;;6165095;23;20090;-85
2022/01/01 11:45:09;;;;;;;26.70;9.85;;;12.00;99.90;;;;;;6161240;23;20025;-85
2022/01/01 11:47:34;;;;;;;26.98;9.60;;;12.00;99.90;;;;;;6187354;23;20345;-85
2022/01/01 11:50:04;;;;;;;26.92;10.52;;;12.00;99.90;;;;;;6160076;23;20071;-85
2022/01/01 11:52:36;;;;;;;25.38;11.05;;;12.00;99.90;;;;;;6187358;23;20025;-86
2022/01/01 11:55:14;;;;;;;24.02;10.88;;;12.00;99.90;;;;;;6159152;23;20028;-84
2022/01/01 11:57:59;;;;;;;18.70;10.27;;;12.00;99.90;;;;;;6136132;23;20477;-85
2022/01/01 12:00:25;;;;;;;19.43;9.97;;;11.90;99.90;;;;;;6162058;23;20029;-85
2022/01/01 12:03:09;;;;;;;21.85;10.73;;;11.90;99.90;;;;;;6185909;23;20685;-85
2022/01/01 12:05:35;;;;;;;20.70;10.13;;;12.00;99.90;;;;;;6186842;23;20021;-85
2022/01/01 12:08:01;;;;;;;19.17;8.82;;;12.00;99.90;;;;;;6187156;23;20024;-84
2022/01/01 12:10:34;;;;;;;27.73;10.25;;;11.90;99.90;;;;;;6187068;23;20046;-85
2022/01/01 12:13:05;;;;;;;23.02;10.63;;;11.90;99.90;;;;;;6187381;23;20032;-85
2022/01/01 12:15:47;;;;;;;26.23;11.02;;;11.90;99.90;;;;;;6161038;23;20029;-85
2022/01/01 12:18:14;;;;;;;24.10;9.90;;;11.90;99.90;;;;;;6154253;23;20022;-83
2022/01/01 12:20:51;;;;;;;29.38;10.68;;;11.90;99.90;;;;;;6154336;23;20065;-85
2022/01/01 12:23:27;;;;;;;19.50;10.02;;;11.90;99.90;;;;;;6152615;23;20021;-84
2022/01/01 12:25:54;;;;;;;24.95;9.77;;;11.90;99.90;;;;;;6135432;23;20021;-85
2022/01/01 12:28:31;;;;;;;24.65;10.88;;;11.90;99.90;;;;;;6162499;23;20370;-84
2022/01/01 12:31:14;;;;;;;25.88;11.30;;;11.90;99.90;;;;;;6160866;23;20100;-85
2022/01/01 12:33:50;;;;;;;21.90;9.55;;;11.90;99.90;;;;;;6156989;23;20030;-85
2022/01/01 12:36:19;;;;;;;19.25;9.07;;;11.90;99.90;;;;;;6155467;23;20469;-85
2022/01/01 12:38:50;;;;;;;25.40;9.90;;;11.90;99.90;;;;;;6154646;23;20357;-85
2022/01/01 12:41:21;;;;;;;20.08;10.60;;;11.90;99.90;;;;;;6180059;23;20083;-84
2022/01/01 12:43:51;;;;;;;23.85;8.48;;;11.90;99.90;;;;;;6157445;23;20104;-85
2022/01/01 12:46:19;;;;;;;19.65;9.15;;;11.90;99.90;;;;;;6158658;23;20021;-85